Tropical Cyclones
[Index]
Main Index Home Page Stock Weather Photos Extreme Storms Discussion Storm News and Storm Chasing Reports Tropical Cyclones / Hurricanes / Typhoons Weather Data and Links Wild Fires / Bushfires Weather Observation Techniques Weather Picture Catalogue Tornado Pictures and Reports Stock Video Footage and DVDs for sale
Season 2003-2004 Tropical Cyclone DARIUS Track Map
Season 2003-2004 Summaries (Operational Data): [AU] [SIO] [SPAC] [SH]
<<- Previous TC | 2003-2004 Season | Next TC ->>

click for intensity scale information  Lat/long Grid: Show Hide

 Date Labels: Show Hide

Operational Tropical Cyclone Data : JTWC Advisories

Name: DARIUS
Number: 0406

29 Dec 2003 06:00 UTC to 04 Jan 2004 12:00 UTC

    date/time    lat    long     hPa   cat  kts
2003-12-29 06   10.0    63.9    1003         25          
2003-12-29 12   10.7    63.5    1002         25          
2003-12-29 18   11.8    63.0    1002         25          
2003-12-30 00   12.0    62.2    1002         25          
2003-12-30 06   12.9    61.0     999         30          
2003-12-30 12   13.5    60.6     997         30          
2003-12-30 18   14.5    60.4     994    1    40          
2003-12-31 00   14.9    59.9     991    1    40          
2003-12-31 06   14.8    59.4     992    1    40          
2003-12-31 12   15.2    58.8     991    1    40          
2003-12-31 18   15.7    59.0     984    2    50          
2004-01-01 00   16.5    59.0     984    2    50          
2004-01-01 06   16.5    59.0     980    2    55          
2004-01-01 12   17.2    58.6     980    2    55          
2004-01-01 18   18.0    58.4     976    2    55          
2004-01-02 00   18.4    58.5     980    2    55          
2004-01-02 06   18.7    58.4     985    2    50          
2004-01-02 12   19.8    58.2     984    2    50          
2004-01-02 18   20.3    58.0     980    2    50          
2004-01-03 00   21.3    58.0     985    2    50          
2004-01-03 06   22.1    57.9     988    1    45          
2004-01-03 12   23.8    58.4     990    1    45          
2004-01-03 18   24.9    58.7     990    1    45          
2004-01-04 00   26.2    59.3     991    1    45          
2004-01-04 06   28.0    59.6     993    1    45          
2004-01-04 12   29.9    61.8     993    1    40          
Winds are 10-min average.

Tropical cyclone tracks developed by Michael Bath using operational warnings and advisories and Google Maps.


[Australian Severe Weather index] [Copyright Notice] [Email Contacts] [Search This Site] [Privacy Policy]
Document: tropical_cyclone_darius.htm Updated: 28 May 2013